Time;durP1;ratioP1;P1;durP2;ratioP2;P2;SDS_P1;SDS_P2;PMS_P1;PMS_P2;Temp;Humidity;BMP_temperature;BMP_pressure;BME280_temperature;BME280_humidity;BME280_pressure;Samples;Min_cycle;Max_cycle;Signal;HPM_P1;HPM_P2
2022/11/06 00:00:30;;;;;;;14.55;7.45;;;;;;;;;;5101454;28;20506;-68
2022/11/06 00:02:58;;;;;;;18.17;7.82;;;;;;;;;;5104027;28;20194;-68
2022/11/06 00:08:09;;;;;;;13.57;7.68;;;;;;;;;;5116377;27;20080;-69
2022/11/06 00:10:35;;;;;;;11.52;7.55;;;;;;;;;;5105600;28;20043;-68
2022/11/06 00:13:01;;;;;;;13.45;8.02;;;;;;;;;;5104592;27;20050;-69
2022/11/06 00:15:27;;;;;;;11.50;7.65;;;;;;;;;;5099078;28;20040;-68
2022/11/06 00:17:53;;;;;;;14.98;7.72;;;;;;;;;;5099759;28;20044;-68
2022/11/06 00:20:19;;;;;;;14.10;7.68;;;;;;;;;;5103638;27;20097;-68
2022/11/06 00:22:45;;;;;;;16.10;7.63;;;;;;;;;;5085938;28;20177;-68
2022/11/06 00:25:11;;;;;;;13.07;7.85;;;;;;;;;;5110387;28;20207;-68
2022/11/06 00:27:38;;;;;;;10.80;7.35;;;;;;;;;;5108354;28;20114;-69
2022/11/06 00:30:05;;;;;;;15.73;7.72;;;;;;;;;;5113737;27;20038;-66
2022/11/06 00:32:31;;;;;;;13.85;7.47;;;;;;;;;;5108643;27;20050;-67
2022/11/06 00:34:57;;;;;;;11.25;7.18;;;;;;;;;;5110208;27;20051;-67
2022/11/06 00:37:23;;;;;;;14.02;7.90;;;;;;;;;;5112741;27;20160;-67
2022/11/06 00:39:49;;;;;;;16.13;7.97;;;;;;;;;;5104118;28;20048;-67
2022/11/06 00:42:15;;;;;;;13.40;8.20;;;;;;;;;;5108491;28;20051;-67
2022/11/06 00:44:41;;;;;;;12.30;7.75;;;;;;;;;;5101419;28;20036;-67
2022/11/06 00:47:07;;;;;;;13.00;8.07;;;;;;;;;;5107620;28;20040;-67
2022/11/06 00:49:33;;;;;;;12.52;7.97;;;;;;;;;;5101948;28;20047;-67
2022/11/06 00:52:00;;;;;;;12.98;7.78;;;;;;;;;;5101249;28;20635;-67
2022/11/06 00:54:26;;;;;;;11.80;7.28;;;;;;;;;;5111843;28;20039;-66
2022/11/06 00:56:52;;;;;;;11.27;8.02;;;;;;;;;;5108493;28;20051;-67
2022/11/06 00:59:18;;;;;;;12.20;7.75;;;;;;;;;;5116998;28;20542;-66
2022/11/06 01:01:45;;;;;;;13.13;8.02;;;;;;;;;;5109137;28;20051;-66
2022/11/06 01:04:12;;;;;;;11.57;7.25;;;;;;;;;;5106800;28;20459;-67
2022/11/06 01:06:41;;;;;;;11.57;6.82;;;;;;;;;;5107930;28;20097;-66
2022/11/06 01:09:07;;;;;;;15.55;7.43;;;;;;;;;;5106261;28;20039;-67
2022/11/06 01:11:38;;;;;;;16.75;8.48;;;;;;;;;;5109842;28;20039;-67
2022/11/06 01:14:05;;;;;;;16.60;8.30;;;;;;;;;;5111669;27;20497;-67
2022/11/06 01:16:32;;;;;;;14.35;7.57;;;;;;;;;;5078755;28;20135;-68
2022/11/06 01:18:58;;;;;;;14.48;8.23;;;;;;;;;;5109885;28;20043;-67
2022/11/06 01:21:26;;;;;;;13.93;8.07;;;;;;;;;;5099087;28;20043;-67
2022/11/06 01:23:53;;;;;;;13.68;8.38;;;;;;;;;;5107260;28;20070;-67
2022/11/06 01:26:20;;;;;;;16.33;8.60;;;;;;;;;;5101126;28;20126;-68
2022/11/06 01:28:46;;;;;;;16.67;8.70;;;;;;;;;;5115403;28;20044;-69
2022/11/06 01:31:13;;;;;;;21.05;8.95;;;;;;;;;;5105788;28;20074;-68
2022/11/06 01:33:39;;;;;;;15.20;9.50;;;;;;;;;;5100193;28;20372;-70
2022/11/06 01:36:07;;;;;;;17.48;9.13;;;;;;;;;;5107069;28;20044;-70
2022/11/06 01:38:33;;;;;;;13.27;9.32;;;;;;;;;;5106113;28;20054;-67
2022/11/06 01:40:59;;;;;;;14.32;9.15;;;;;;;;;;5075577;28;20043;-68
2022/11/06 01:43:44;;;;;;;16.35;9.18;;;;;;;;;;5103175;28;20043;-67
2022/11/06 01:46:10;;;;;;;17.20;9.27;;;;;;;;;;5117093;27;20075;-69
2022/11/06 01:48:36;;;;;;;14.85;9.18;;;;;;;;;;5112671;27;20043;-69
2022/11/06 01:51:02;;;;;;;13.68;8.60;;;;;;;;;;5108446;27;20043;-68
2022/11/06 01:53:28;;;;;;;16.92;9.43;;;;;;;;;;5120049;27;20035;-68
2022/11/06 01:55:57;;;;;;;17.45;9.38;;;;;;;;;;5106465;28;20043;-67
2022/11/06 01:58:24;;;;;;;14.15;8.90;;;;;;;;;;5101553;28;20063;-69
2022/11/06 02:00:50;;;;;;;14.10;9.10;;;;;;;;;;5104561;28;20141;-70
2022/11/06 02:03:16;;;;;;;13.93;8.90;;;;;;;;;;5110113;27;20512;-69
2022/11/06 02:05:42;;;;;;;15.05;9.95;;;;;;;;;;5114713;27;20043;-69
2022/11/06 02:08:09;;;;;;;13.40;9.10;;;;;;;;;;5112293;28;20050;-70
2022/11/06 02:10:36;;;;;;;16.20;10.35;;;;;;;;;;5101279;28;20036;-71
2022/11/06 02:13:20;;;;;;;12.57;8.82;;;;;;;;;;5106510;27;20781;-71
2022/11/06 02:16:05;;;;;;;18.33;9.68;;;;;;;;;;5116668;27;20047;-71
2022/11/06 02:18:50;;;;;;;17.35;9.80;;;;;;;;;;5108306;27;20048;-71
2022/11/06 02:21:22;;;;;;;16.02;8.70;;;;;;;;;;5110560;28;20047;-70
2022/11/06 02:24:07;;;;;;;20.50;10.13;;;;;;;;;;5101238;27;20048;-70
2022/11/06 02:26:44;;;;;;;13.60;8.88;;;;;;;;;;5105252;27;20053;-70
2022/11/06 02:29:14;;;;;;;15.70;9.27;;;;;;;;;;5121082;27;20078;-70
2022/11/06 02:31:41;;;;;;;17.45;9.38;;;;;;;;;;5121146;27;20130;-70
2022/11/06 02:34:14;;;;;;;15.73;9.57;;;;;;;;;;5111961;28;20055;-71
2022/11/06 02:36:47;;;;;;;13.25;8.90;;;;;;;;;;5105477;28;20048;-70
2022/11/06 02:39:15;;;;;;;14.45;9.10;;;;;;;;;;5107099;28;20047;-70
2022/11/06 02:41:43;;;;;;;17.48;9.38;;;;;;;;;;5100783;27;20405;-71
2022/11/06 02:44:11;;;;;;;15.48;9.07;;;;;;;;;;5107841;28;20052;-70
2022/11/06 02:46:43;;;;;;;20.98;9.77;;;;;;;;;;5109362;27;20044;-70
2022/11/06 02:49:29;;;;;;;17.15;8.82;;;;;;;;;;5106669;27;20122;-69
2022/11/06 02:51:58;;;;;;;19.50;8.82;;;;;;;;;;5090079;28;20139;-70
2022/11/06 02:54:26;;;;;;;16.45;8.85;;;;;;;;;;5089620;28;20101;-70
2022/11/06 02:56:54;;;;;;;18.02;8.52;;;;;;;;;;5107161;28;20489;-70
2022/11/06 02:59:23;;;;;;;14.07;8.48;;;;;;;;;;5100264;28;20046;-70
2022/11/06 03:01:51;;;;;;;15.38;8.43;;;;;;;;;;5110459;28;20055;-70
2022/11/06 03:04:21;;;;;;;15.82;7.93;;;;;;;;;;5110051;27;20039;-70
2022/11/06 03:07:00;;;;;;;13.68;7.85;;;;;;;;;;5118972;27;20043;-70
2022/11/06 03:09:28;;;;;;;14.25;7.63;;;;;;;;;;5095836;28;20051;-70
2022/11/06 03:12:00;;;;;;;16.80;8.20;;;;;;;;;;5100455;27;20059;-70
2022/11/06 03:14:31;;;;;;;13.30;7.60;;;;;;;;;;5090195;28;20047;-70
2022/11/06 03:17:00;;;;;;;12.07;7.60;;;;;;;;;;5112087;27;20078;-72
2022/11/06 03:19:32;;;;;;;15.00;8.45;;;;;;;;;;5116525;27;20042;-69
2022/11/06 03:22:23;;;;;;;14.00;8.27;;;;;;;;;;5098786;27;20048;-72
2022/11/06 03:24:52;;;;;;;14.98;6.95;;;;;;;;;;5109216;27;20075;-71
2022/11/06 03:27:32;;;;;;;16.58;7.40;;;;;;;;;;5096651;27;20049;-72
2022/11/06 03:30:05;;;;;;;14.82;7.40;;;;;;;;;;5113773;27;20063;-72
2022/11/06 03:32:34;;;;;;;16.17;7.80;;;;;;;;;;5086358;28;20150;-70
2022/11/06 03:35:19;;;;;;;12.40;6.82;;;;;;;;;;5110954;27;20428;-72
2022/11/06 03:37:52;;;;;;;14.52;8.20;;;;;;;;;;5107562;28;20047;-72
2022/11/06 03:40:20;;;;;;;12.55;6.95;;;;;;;;;;5109755;27;20104;-72
2022/11/06 03:42:48;;;;;;;15.20;7.28;;;;;;;;;;5093069;28;20102;-70
2022/11/06 03:45:17;;;;;;;17.08;7.45;;;;;;;;;;5109639;27;20103;-72
2022/11/06 03:47:46;;;;;;;17.23;7.85;;;;;;;;;;5108977;27;20104;-71
2022/11/06 03:50:15;;;;;;;14.82;7.38;;;;;;;;;;5101586;28;20415;-72
2022/11/06 03:52:54;;;;;;;15.07;7.57;;;;;;;;;;5102759;28;20048;-72
2022/11/06 03:55:23;;;;;;;13.40;7.03;;;;;;;;;;5077881;28;20510;-71
2022/11/06 03:57:57;;;;;;;15.27;7.32;;;;;;;;;;5094661;27;20051;-72
2022/11/06 04:00:23;;;;;;;13.65;7.05;;;;;;;;;;5107857;28;20055;-71
2022/11/06 04:03:03;;;;;;;13.48;7.68;;;;;;;;;;5093841;27;20044;-71
2022/11/06 04:05:30;;;;;;;20.45;8.40;;;;;;;;;;5086808;28;20040;-72
2022/11/06 04:16:16;;;;;;;14.05;7.35;;;;;;;;;;5109548;27;20047;-72
2022/11/06 04:18:42;;;;;;;15.02;6.75;;;;;;;;;;5103239;27;20051;-72
2022/11/06 04:21:26;;;;;;;13.10;6.45;;;;;;;;;;5097354;27;20040;-72
2022/11/06 04:26:52;;;;;;;12.57;7.03;;;;;;;;;;5102792;28;20031;-69
2022/11/06 04:29:37;;;;;;;15.95;6.38;;;;;;;;;;5106865;28;20494;-72
2022/11/06 04:32:08;;;;;;;20.05;7.38;;;;;;;;;;5107285;27;20698;-72
2022/11/06 04:34:44;;;;;;;16.85;6.55;;;;;;;;;;5107991;28;20501;-72
2022/11/06 04:37:17;;;;;;;19.45;7.68;;;;;;;;;;5102306;28;20127;-72
2022/11/06 04:39:58;;;;;;;16.23;7.07;;;;;;;;;;5101122;28;20063;-72
2022/11/06 04:42:38;;;;;;;14.20;6.72;;;;;;;;;;5105053;28;20058;-70
2022/11/06 04:45:06;;;;;;;12.68;6.55;;;;;;;;;;5099403;28;20825;-72
2022/11/06 04:47:33;;;;;;;14.63;7.10;;;;;;;;;;5101840;28;20043;-72
2022/11/06 04:50:00;;;;;;;13.05;6.47;;;;;;;;;;5102045;28;20035;-72
2022/11/06 04:52:27;;;;;;;15.25;6.88;;;;;;;;;;5104943;28;20104;-71
2022/11/06 04:54:54;;;;;;;16.02;6.85;;;;;;;;;;5099304;28;20044;-72
2022/11/06 04:57:21;;;;;;;15.07;6.75;;;;;;;;;;5112945;28;20465;-72
2022/11/06 04:59:47;;;;;;;15.73;6.95;;;;;;;;;;5099235;28;20054;-72
2022/11/06 05:02:13;;;;;;;12.10;6.55;;;;;;;;;;5101959;28;20109;-72
2022/11/06 05:04:39;;;;;;;12.15;6.47;;;;;;;;;;5087434;28;20054;-72
2022/11/06 05:07:05;;;;;;;19.50;7.05;;;;;;;;;;5104271;28;20044;-72
2022/11/06 05:09:32;;;;;;;17.23;6.07;;;;;;;;;;5108180;28;20055;-72
2022/11/06 05:11:58;;;;;;;11.93;6.28;;;;;;;;;;5099698;28;20032;-72
2022/11/06 05:14:24;;;;;;;12.32;6.43;;;;;;;;;;5104987;28;20093;-71
2022/11/06 05:16:49;;;;;;;16.67;7.07;;;;;;;;;;5103710;28;20056;-71
2022/11/06 05:19:15;;;;;;;14.65;6.93;;;;;;;;;;5110040;27;20055;-72
2022/11/06 05:24:26;;;;;;;15.70;5.82;;;;;;;;;;5110076;28;20074;-72
2022/11/06 05:26:52;;;;;;;14.38;6.07;;;;;;;;;;5110000;27;20079;-72
2022/11/06 05:29:18;;;;;;;14.27;6.05;;;;;;;;;;5113771;27;20039;-72
2022/11/06 05:31:44;;;;;;;15.90;5.30;;;;;;;;;;5097603;28;20126;-72
2022/11/06 05:34:10;;;;;;;12.70;5.45;;;;;;;;;;5108415;27;20131;-72
2022/11/06 05:36:36;;;;;;;14.60;4.80;;;;;;;;;;5112002;27;20044;-72
2022/11/06 05:39:02;;;;;;;13.85;5.18;;;;;;;;;;5102821;27;20082;-72
2022/11/06 05:41:28;;;;;;;17.30;5.15;;;;;;;;;;5106427;27;20067;-72
2022/11/06 05:43:54;;;;;;;11.02;5.00;;;;;;;;;;5106076;28;20101;-69
2022/11/06 05:46:20;;;;;;;13.30;4.93;;;;;;;;;;5113114;27;20043;-72
2022/11/06 05:48:46;;;;;;;13.07;4.68;;;;;;;;;;5099078;27;20096;-69
2022/11/06 05:51:12;;;;;;;11.48;4.30;;;;;;;;;;5107788;27;20052;-72
2022/11/06 05:53:38;;;;;;;12.68;4.38;;;;;;;;;;5118736;27;20047;-72
2022/11/06 05:56:04;;;;;;;17.38;4.55;;;;;;;;;;5086635;27;20051;-72
2022/11/06 05:58:30;;;;;;;13.88;4.78;;;;;;;;;;5101535;27;20054;-72
2022/11/06 06:00:57;;;;;;;12.38;4.90;;;;;;;;;;5107480;27;20140;-70
2022/11/06 06:03:23;;;;;;;15.93;4.75;;;;;;;;;;5087729;27;20054;-72
2022/11/06 06:05:50;;;;;;;13.18;4.38;;;;;;;;;;5105900;28;20132;-72
2022/11/06 06:08:16;;;;;;;12.15;3.95;;;;;;;;;;5097896;28;20085;-71
2022/11/06 06:10:45;;;;;;;15.35;4.07;;;;;;;;;;5095482;28;20537;-71
2022/11/06 06:13:12;;;;;;;11.27;4.13;;;;;;;;;;5099112;27;20403;-73
2022/11/06 06:15:38;;;;;;;10.55;4.38;;;;;;;;;;5100969;27;20048;-72
2022/11/06 06:18:04;;;;;;;9.90;4.30;;;;;;;;;;5105113;28;20066;-71
2022/11/06 06:20:31;;;;;;;15.20;4.88;;;;;;;;;;5106600;27;20070;-72
2022/11/06 06:22:57;;;;;;;13.90;5.18;;;;;;;;;;5103843;27;20047;-73
2022/11/06 06:25:23;;;;;;;9.93;3.95;;;;;;;;;;5099247;28;20072;-73
2022/11/06 06:27:50;;;;;;;11.38;4.18;;;;;;;;;;5103770;27;21467;-73
2022/11/06 06:30:16;;;;;;;11.18;3.95;;;;;;;;;;5104572;28;20055;-73
2022/11/06 06:32:42;;;;;;;12.98;4.00;;;;;;;;;;5101730;27;20040;-72
2022/11/06 06:35:08;;;;;;;11.05;3.72;;;;;;;;;;5106939;27;20044;-73
2022/11/06 06:37:34;;;;;;;10.40;3.60;;;;;;;;;;5104581;28;20492;-73
2022/11/06 06:40:00;;;;;;;11.63;3.80;;;;;;;;;;5105512;27;20040;-72
2022/11/06 06:42:30;;;;;;;12.80;3.80;;;;;;;;;;5098707;27;20036;-72
2022/11/06 06:44:56;;;;;;;10.80;3.65;;;;;;;;;;5099865;27;20050;-72
2022/11/06 06:47:22;;;;;;;12.55;3.72;;;;;;;;;;5099174;28;20081;-72
2022/11/06 06:49:48;;;;;;;12.20;3.85;;;;;;;;;;5107408;28;20447;-71
2022/11/06 06:52:14;;;;;;;14.77;3.60;;;;;;;;;;5107449;27;20040;-72
2022/11/06 06:54:40;;;;;;;11.23;3.65;;;;;;;;;;5100658;27;20051;-71
2022/11/06 06:57:07;;;;;;;12.80;3.80;;;;;;;;;;5113359;27;20116;-71
2022/11/06 06:59:33;;;;;;;13.80;3.25;;;;;;;;;;5079530;28;20062;-71
2022/11/06 07:01:59;;;;;;;13.05;3.83;;;;;;;;;;5103343;27;20490;-71
2022/11/06 07:04:25;;;;;;;7.63;3.30;;;;;;;;;;5109705;27;20065;-71
2022/11/06 07:06:54;;;;;;;7.90;2.97;;;;;;;;;;5102243;27;20153;-71
2022/11/06 07:09:21;;;;;;;10.40;3.20;;;;;;;;;;5098740;28;20046;-72
2022/11/06 07:11:47;;;;;;;7.47;2.90;;;;;;;;;;5098616;28;20044;-71
2022/11/06 07:14:14;;;;;;;9.57;3.35;;;;;;;;;;5100503;27;20039;-71
2022/11/06 07:16:40;;;;;;;9.20;3.35;;;;;;;;;;5092640;28;20047;-73
2022/11/06 07:19:05;;;;;;;12.77;3.17;;;;;;;;;;5108103;27;20045;-71
2022/11/06 07:21:31;;;;;;;10.88;3.53;;;;;;;;;;5099523;27;20068;-71
2022/11/06 07:23:57;;;;;;;10.80;2.90;;;;;;;;;;5097147;27;20043;-71
2022/11/06 07:26:23;;;;;;;13.13;3.45;;;;;;;;;;5102213;27;20062;-73
2022/11/06 07:28:49;;;;;;;13.05;3.10;;;;;;;;;;5102415;28;20525;-71
2022/11/06 07:31:15;;;;;;;13.93;3.42;;;;;;;;;;5109726;27;20051;-71
2022/11/06 07:33:41;;;;;;;13.05;3.03;;;;;;;;;;5078682;28;20052;-71
2022/11/06 07:36:08;;;;;;;12.90;3.17;;;;;;;;;;5102025;28;20036;-71
2022/11/06 07:38:35;;;;;;;8.10;2.78;;;;;;;;;;5101594;27;20097;-71
2022/11/06 07:41:03;;;;;;;8.65;2.88;;;;;;;;;;5107888;27;20044;-72
2022/11/06 07:43:29;;;;;;;8.65;2.63;;;;;;;;;;5103675;27;20443;-71
2022/11/06 07:45:58;;;;;;;13.20;3.10;;;;;;;;;;5100382;28;20056;-71
2022/11/06 07:48:24;;;;;;;10.07;3.92;;;;;;;;;;5100324;27;20048;-71
2022/11/06 07:50:50;;;;;;;11.23;3.05;;;;;;;;;;5096453;27;20517;-73
2022/11/06 07:53:16;;;;;;;11.00;3.15;;;;;;;;;;5109756;27;20466;-73
2022/11/06 07:55:52;;;;;;;9.93;2.90;;;;;;;;;;5099353;28;20051;-72
2022/11/06 07:58:18;;;;;;;9.98;2.67;;;;;;;;;;5108102;27;20482;-72
2022/11/06 08:00:48;;;;;;;7.95;2.50;;;;;;;;;;5101312;28;20138;-72
2022/11/06 08:03:14;;;;;;;9.05;2.85;;;;;;;;;;5103040;27;20607;-73
2022/11/06 08:05:40;;;;;;;10.48;2.90;;;;;;;;;;5105771;28;20127;-71
2022/11/06 08:08:06;;;;;;;6.88;2.42;;;;;;;;;;5098552;28;20143;-72
2022/11/06 08:10:32;;;;;;;10.95;2.85;;;;;;;;;;5075724;28;20055;-72
2022/11/06 08:13:01;;;;;;;10.02;2.90;;;;;;;;;;5097550;28;20039;-71
2022/11/06 08:15:27;;;;;;;8.18;2.45;;;;;;;;;;5089512;28;20040;-73
2022/11/06 08:17:53;;;;;;;8.27;2.45;;;;;;;;;;5096506;28;20059;-73
2022/11/06 08:20:19;;;;;;;7.05;2.25;;;;;;;;;;5095477;28;20044;-73
2022/11/06 08:22:45;;;;;;;11.73;3.17;;;;;;;;;;5102640;27;20097;-73
2022/11/06 08:25:11;;;;;;;8.82;3.00;;;;;;;;;;5100613;27;20079;-73
2022/11/06 08:27:37;;;;;;;9.40;2.83;;;;;;;;;;5104953;28;20040;-73
2022/11/06 08:30:03;;;;;;;6.85;2.47;;;;;;;;;;5092486;28;20047;-71
2022/11/06 08:32:29;;;;;;;8.43;2.75;;;;;;;;;;5093298;27;20493;-72
2022/11/06 08:34:55;;;;;;;6.68;2.63;;;;;;;;;;5079418;28;20070;-70
2022/11/06 08:37:21;;;;;;;10.13;2.60;;;;;;;;;;5098451;28;20071;-73
2022/11/06 08:39:47;;;;;;;12.77;2.70;;;;;;;;;;5082346;28;20044;-73
2022/11/06 08:42:13;;;;;;;9.98;2.65;;;;;;;;;;5097143;28;20044;-73
2022/11/06 08:44:41;;;;;;;6.38;2.50;;;;;;;;;;5097119;28;20506;-71
2022/11/06 08:47:07;;;;;;;11.23;3.10;;;;;;;;;;5080465;28;20068;-73
2022/11/06 08:49:33;;;;;;;11.23;3.47;;;;;;;;;;5096964;28;20042;-71
2022/11/06 08:51:59;;;;;;;8.32;3.10;;;;;;;;;;5096712;28;20040;-72
2022/11/06 08:54:25;;;;;;;9.13;2.60;;;;;;;;;;5103241;28;20119;-73
2022/11/06 08:56:51;;;;;;;12.45;3.10;;;;;;;;;;5096573;28;20055;-73
2022/11/06 08:59:17;;;;;;;10.18;2.95;;;;;;;;;;5098131;28;20129;-70
2022/11/06 09:01:43;;;;;;;14.18;2.70;;;;;;;;;;5099071;28;20092;-72
2022/11/06 09:04:09;;;;;;;13.93;3.20;;;;;;;;;;5104483;28;20088;-70
2022/11/06 09:06:35;;;;;;;7.95;2.47;;;;;;;;;;5097749;28;20452;-71
2022/11/06 09:09:01;;;;;;;10.93;3.13;;;;;;;;;;5088280;28;20046;-70
2022/11/06 09:11:27;;;;;;;10.27;2.67;;;;;;;;;;5101408;28;20035;-70
2022/11/06 09:13:53;;;;;;;9.20;2.58;;;;;;;;;;5099964;28;20040;-70
2022/11/06 09:16:19;;;;;;;11.45;2.60;;;;;;;;;;5100845;28;20051;-71
2022/11/06 09:18:45;;;;;;;8.70;2.50;;;;;;;;;;5093368;28;20514;-70
2022/11/06 09:21:11;;;;;;;7.35;2.35;;;;;;;;;;5102068;27;20067;-72
2022/11/06 09:23:37;;;;;;;6.30;2.30;;;;;;;;;;5093897;28;20083;-71
2022/11/06 09:26:03;;;;;;;6.43;2.38;;;;;;;;;;5100518;28;20047;-71
2022/11/06 09:28:29;;;;;;;11.73;2.30;;;;;;;;;;5101120;28;20047;-71
2022/11/06 09:30:55;;;;;;;8.63;2.28;;;;;;;;;;5093037;27;20118;-71
2022/11/06 09:33:21;;;;;;;10.13;2.38;;;;;;;;;;5083280;28;20101;-73
2022/11/06 09:35:47;;;;;;;6.13;2.50;;;;;;;;;;5110639;28;20048;-72
2022/11/06 09:38:17;;;;;;;8.73;2.50;;;;;;;;;;5108720;27;20528;-72
2022/11/06 09:40:48;;;;;;;11.13;2.40;;;;;;;;;;5104593;28;20047;-72
2022/11/06 09:43:31;;;;;;;7.15;2.45;;;;;;;;;;5092251;28;20043;-72
2022/11/06 09:46:02;;;;;;;7.32;2.20;;;;;;;;;;5105085;28;20152;-71
2022/11/06 09:48:30;;;;;;;12.75;2.70;;;;;;;;;;5085777;28;20067;-70
2022/11/06 09:51:03;;;;;;;9.80;2.15;;;;;;;;;;5104557;28;20481;-72
2022/11/06 09:53:29;;;;;;;6.68;2.05;;;;;;;;;;5104395;28;20089;-74
2022/11/06 09:55:56;;;;;;;7.55;2.17;;;;;;;;;;5086449;28;20055;-71
2022/11/06 09:58:39;;;;;;;7.43;2.13;;;;;;;;;;5086471;28;20047;-71
2022/11/06 10:01:11;;;;;;;6.55;2.28;;;;;;;;;;5106444;28;20063;-73
2022/11/06 10:03:43;;;;;;;8.82;2.10;;;;;;;;;;5099993;28;20495;-70
2022/11/06 10:06:09;;;;;;;6.53;1.98;;;;;;;;;;5097651;28;20043;-73
2022/11/06 10:08:35;;;;;;;8.48;2.08;;;;;;;;;;5108108;28;20108;-70
2022/11/06 10:11:13;;;;;;;7.18;1.85;;;;;;;;;;5106247;28;20512;-72
2022/11/06 10:14:18;;;;;;;6.63;1.90;;;;;;;;;;5100450;28;20047;-70
2022/11/06 10:17:05;;;;;;;8.80;1.90;;;;;;;;;;5006856;28;20053;-72
2022/11/06 10:19:41;;;;;;;9.00;2.30;;;;;;;;;;5006296;28;20041;-71
2022/11/06 10:22:07;;;;;;;5.55;1.48;;;;;;;;;;5063999;27;20051;-71
2022/11/06 10:24:36;;;;;;;6.45;1.90;;;;;;;;;;5093871;28;20056;-73
2022/11/06 10:27:04;;;;;;;8.18;2.20;;;;;;;;;;5081842;28;20261;-72
2022/11/06 10:29:49;;;;;;;8.23;2.00;;;;;;;;;;5095072;28;20044;-73
2022/11/06 10:32:17;;;;;;;6.25;1.73;;;;;;;;;;5092327;28;20055;-71
2022/11/06 10:34:49;;;;;;;8.02;1.80;;;;;;;;;;5096258;28;20463;-72
2022/11/06 10:37:21;;;;;;;8.75;2.08;;;;;;;;;;5092707;27;20052;-74
2022/11/06 10:39:48;;;;;;;7.20;1.98;;;;;;;;;;5088731;28;20055;-71
2022/11/06 10:42:15;;;;;;;14.38;2.58;;;;;;;;;;5094798;28;20055;-72
2022/11/06 10:44:44;;;;;;;11.02;2.25;;;;;;;;;;5095242;27;20490;-73
2022/11/06 10:47:21;;;;;;;7.90;2.50;;;;;;;;;;5079931;28;20551;-72
2022/11/06 10:49:50;;;;;;;11.40;2.80;;;;;;;;;;5093280;27;20039;-73
2022/11/06 10:52:34;;;;;;;5.55;1.95;;;;;;;;;;5093267;28;20071;-72
2022/11/06 10:55:18;;;;;;;5.97;2.30;;;;;;;;;;5090473;27;20061;-70
2022/11/06 10:57:55;;;;;;;5.93;2.05;;;;;;;;;;5096301;28;20099;-70
2022/11/06 11:00:21;;;;;;;12.70;2.40;;;;;;;;;;5078208;28;20122;-71
2022/11/06 11:02:49;;;;;;;6.53;1.95;;;;;;;;;;5096802;28;20065;-71
2022/11/06 11:05:20;;;;;;;7.10;1.98;;;;;;;;;;5095216;28;20060;-69
2022/11/06 11:07:47;;;;;;;7.57;2.28;;;;;;;;;;5093058;28;20036;-72
2022/11/06 11:10:24;;;;;;;7.57;2.03;;;;;;;;;;5094794;27;20055;-72
2022/11/06 11:12:52;;;;;;;7.07;1.95;;;;;;;;;;5094986;27;20040;-72
2022/11/06 11:15:22;;;;;;;10.20;2.38;;;;;;;;;;5098273;28;20035;-72
2022/11/06 11:18:07;;;;;;;7.47;1.77;;;;;;;;;;5079662;28;20044;-72
2022/11/06 11:20:34;;;;;;;9.98;2.00;;;;;;;;;;5095448;27;20068;-72
2022/11/06 11:23:04;;;;;;;8.52;2.05;;;;;;;;;;5076266;28;20052;-72
2022/11/06 11:25:30;;;;;;;10.18;1.80;;;;;;;;;;5094252;28;20142;-67
2022/11/06 11:27:56;;;;;;;12.40;2.17;;;;;;;;;;5089902;27;20455;-70
2022/11/06 11:30:28;;;;;;;5.03;1.98;;;;;;;;;;5097269;28;20134;-70
2022/11/06 11:32:55;;;;;;;9.30;1.90;;;;;;;;;;5074121;28;20039;-70
2022/11/06 11:35:25;;;;;;;7.75;2.20;;;;;;;;;;5093945;28;20097;-74
2022/11/06 11:37:52;;;;;;;8.98;1.70;;;;;;;;;;5095197;28;20428;-72
2022/11/06 11:40:21;;;;;;;6.00;1.70;;;;;;;;;;5081512;28;20134;-72
2022/11/06 11:42:47;;;;;;;6.32;1.90;;;;;;;;;;5099096;28;20147;-69
2022/11/06 11:45:17;;;;;;;9.25;1.73;;;;;;;;;;5094388;28;20056;-72
2022/11/06 11:47:45;;;;;;;6.40;1.80;;;;;;;;;;5093779;28;20046;-70
2022/11/06 11:50:24;;;;;;;6.28;1.50;;;;;;;;;;5089055;28;20040;-71
2022/11/06 11:52:52;;;;;;;4.63;1.42;;;;;;;;;;5090663;27;20128;-71
2022/11/06 11:55:24;;;;;;;7.68;1.85;;;;;;;;;;5095646;27;20047;-71
2022/11/06 11:57:52;;;;;;;6.43;1.80;;;;;;;;;;5097163;27;20048;-70
2022/11/06 12:00:19;;;;;;;5.50;1.55;;;;;;;;;;5093773;27;20050;-70
2022/11/06 12:02:47;;;;;;;7.53;1.75;;;;;;;;;;5091613;28;20055;-72
2022/11/06 12:05:13;;;;;;;8.52;1.80;;;;;;;;;;5098731;28;20036;-71
2022/11/06 12:07:43;;;;;;;7.30;1.92;;;;;;;;;;5094972;27;20432;-72
2022/11/06 12:10:18;;;;;;;6.38;1.88;;;;;;;;;;5094905;28;20174;-70
2022/11/06 12:12:47;;;;;;;5.50;1.52;;;;;;;;;;5093125;28;20036;-71
2022/11/06 12:15:18;;;;;;;9.48;2.10;;;;;;;;;;5094906;28;20063;-71
2022/11/06 12:17:46;;;;;;;5.78;1.80;;;;;;;;;;5090495;28;20051;-73
2022/11/06 12:20:16;;;;;;;7.55;1.60;;;;;;;;;;5093479;27;20142;-73
2022/11/06 12:22:44;;;;;;;5.65;1.55;;;;;;;;;;5093879;27;20047;-71
2022/11/06 12:25:20;;;;;;;4.85;1.95;;;;;;;;;;5092627;28;20043;-71
2022/11/06 12:27:58;;;;;;;5.63;1.85;;;;;;;;;;5091070;28;20093;-69
2022/11/06 12:30:24;;;;;;;6.30;1.73;;;;;;;;;;5094854;28;20040;-71
2022/11/06 12:33:10;;;;;;;6.22;1.70;;;;;;;;;;5094105;28;20039;-68
2022/11/06 12:35:39;;;;;;;7.93;1.42;;;;;;;;;;5089787;28;20107;-72
2022/11/06 12:38:11;;;;;;;5.07;1.50;;;;;;;;;;5094631;28;20047;-70
2022/11/06 12:40:42;;;;;;;4.93;1.73;;;;;;;;;;5093164;28;20039;-70
2022/11/06 12:43:27;;;;;;;7.05;1.90;;;;;;;;;;5087906;28;20543;-73
2022/11/06 12:45:55;;;;;;;6.13;1.75;;;;;;;;;;5093004;28;20056;-72
2022/11/06 12:48:24;;;;;;;8.45;2.15;;;;;;;;;;5089988;28;20043;-75
2022/11/06 12:50:54;;;;;;;5.75;1.60;;;;;;;;;;5092231;28;20051;-72
2022/11/06 12:53:43;;;;;;;9.18;1.70;;;;;;;;;;5096450;28;20088;-71
2022/11/06 12:56:16;;;;;;;4.63;1.55;;;;;;;;;;5088720;28;20040;-74
2022/11/06 12:58:57;;;;;;;7.65;1.75;;;;;;;;;;5089918;28;20070;-72
2022/11/06 13:01:38;;;;;;;5.95;1.70;;;;;;;;;;5076505;28;20140;-72
2022/11/06 13:04:07;;;;;;;4.68;1.80;;;;;;;;;;5093421;28;20035;-72
2022/11/06 13:06:33;;;;;;;5.85;1.70;;;;;;;;;;5097406;28;20459;-73
2022/11/06 13:08:59;;;;;;;4.18;1.60;;;;;;;;;;5090323;28;20044;-73
2022/11/06 13:11:33;;;;;;;5.28;1.65;;;;;;;;;;5091941;28;20230;-71
2022/11/06 13:14:02;;;;;;;4.53;1.70;;;;;;;;;;5093064;28;20039;-74
2022/11/06 13:16:33;;;;;;;6.88;2.17;;;;;;;;;;5090642;28;20129;-71
2022/11/06 13:19:05;;;;;;;4.72;1.70;;;;;;;;;;5089677;28;20036;-73
2022/11/06 13:21:49;;;;;;;5.68;1.90;;;;;;;;;;5091449;28;20135;-70
2022/11/06 13:24:34;;;;;;;9.70;1.95;;;;;;;;;;5086466;28;20158;-72
2022/11/06 13:27:19;;;;;;;7.43;2.03;;;;;;;;;;5096733;28;20495;-70
2022/11/06 13:29:45;;;;;;;3.97;1.60;;;;;;;;;;5091842;28;20043;-70
2022/11/06 13:32:15;;;;;;;5.28;1.80;;;;;;;;;;5093011;28;20043;-70
2022/11/06 13:34:41;;;;;;;6.88;1.80;;;;;;;;;;5074163;28;20054;-75
2022/11/06 13:37:13;;;;;;;6.90;1.60;;;;;;;;;;5095420;28;20054;-72
2022/11/06 13:39:42;;;;;;;4.93;1.58;;;;;;;;;;5095264;28;20043;-71
2022/11/06 13:42:29;;;;;;;7.85;1.92;;;;;;;;;;5101849;27;20056;-73
2022/11/06 13:44:55;;;;;;;6.13;1.77;;;;;;;;;;5079219;28;20036;-73
2022/11/06 13:47:27;;;;;;;6.85;2.17;;;;;;;;;;5095133;28;20035;-73
2022/11/06 13:50:05;;;;;;;8.70;1.95;;;;;;;;;;5082470;28;20054;-73
2022/11/06 13:52:34;;;;;;;5.80;1.75;;;;;;;;;;5089244;27;20051;-71
2022/11/06 13:55:13;;;;;;;5.63;2.00;;;;;;;;;;5096228;27;20043;-72
2022/11/06 13:57:42;;;;;;;7.47;2.22;;;;;;;;;;5092390;27;20043;-69
2022/11/06 14:00:17;;;;;;;7.75;1.80;;;;;;;;;;5096036;27;20122;-71
2022/11/06 14:03:02;;;;;;;7.25;1.70;;;;;;;;;;5095354;27;21704;-71
2022/11/06 14:05:37;;;;;;;8.30;2.08;;;;;;;;;;5099359;27;20040;-73
2022/11/06 14:08:05;;;;;;;6.35;1.70;;;;;;;;;;5096481;28;20422;-71
2022/11/06 14:10:36;;;;;;;6.10;2.10;;;;;;;;;;5090598;28;20147;-71
2022/11/06 14:13:04;;;;;;;5.13;1.92;;;;;;;;;;5097927;28;20057;-73
2022/11/06 14:15:34;;;;;;;9.10;1.70;;;;;;;;;;5096047;28;20052;-73
2022/11/06 14:18:00;;;;;;;6.45;2.08;;;;;;;;;;5091335;28;20047;-71
2022/11/06 14:20:29;;;;;;;6.18;2.00;;;;;;;;;;5094026;27;20051;-71
2022/11/06 14:22:55;;;;;;;7.43;2.10;;;;;;;;;;5080465;28;20563;-71
2022/11/06 14:25:27;;;;;;;6.03;2.22;;;;;;;;;;5095343;27;20585;-72
2022/11/06 14:27:53;;;;;;;9.73;2.03;;;;;;;;;;5092142;27;20054;-70
2022/11/06 14:30:28;;;;;;;8.38;1.83;;;;;;;;;;5096234;27;20067;-71
2022/11/06 14:32:58;;;;;;;6.20;1.88;;;;;;;;;;5096067;28;20050;-72
2022/11/06 14:35:30;;;;;;;8.55;2.22;;;;;;;;;;5112239;27;20039;-71
2022/11/06 14:38:15;;;;;;;6.78;2.00;;;;;;;;;;5092968;27;20528;-70
2022/11/06 14:40:42;;;;;;;6.82;2.10;;;;;;;;;;5091065;28;20048;-71
2022/11/06 14:43:16;;;;;;;8.48;2.53;;;;;;;;;;5092171;27;20044;-73
2022/11/06 14:45:50;;;;;;;8.50;2.38;;;;;;;;;;5093722;27;20047;-71
2022/11/06 14:48:24;;;;;;;7.00;2.20;;;;;;;;;;5097291;27;20045;-73
2022/11/06 14:50:51;;;;;;;8.02;2.33;;;;;;;;;;5093897;27;20059;-73
2022/11/06 14:53:22;;;;;;;6.47;2.78;;;;;;;;;;5097134;27;20043;-73
2022/11/06 14:55:59;;;;;;;13.90;2.67;;;;;;;;;;5095045;27;20044;-73
2022/11/06 14:58:28;;;;;;;8.88;2.88;;;;;;;;;;5096212;28;20528;-73
2022/11/06 15:01:02;;;;;;;7.70;2.75;;;;;;;;;;5094403;28;20127;-72
2022/11/06 15:03:34;;;;;;;7.72;2.88;;;;;;;;;;5093933;28;20063;-71
2022/11/06 15:06:04;;;;;;;8.07;3.03;;;;;;;;;;5094960;28;20062;-71